sensor_id;sensor_type;location;lat;lon;timestamp;P1;durP1;ratioP1;P2;durP2;ratioP2
41966;SDS011;27656;53.068;8.818;2022-07-29T00:00:55;6.53;;;1.70;;
41966;SDS011;27656;53.068;8.818;2022-07-29T00:03:22;5.53;;;1.83;;
41966;SDS011;27656;53.068;8.818;2022-07-29T00:05:48;6.53;;;2.17;;
41966;SDS011;27656;53.068;8.818;2022-07-29T00:08:15;6.97;;;2.00;;
41966;SDS011;27656;53.068;8.818;2022-07-29T00:10:42;4.70;;;2.00;;
41966;SDS011;27656;53.068;8.818;2022-07-29T00:13:09;3.10;;;1.60;;
41966;SDS011;27656;53.068;8.818;2022-07-29T00:15:35;7.23;;;2.27;;
41966;SDS011;27656;53.068;8.818;2022-07-29T00:18:01;5.70;;;1.90;;
41966;SDS011;27656;53.068;8.818;2022-07-29T00:20:28;8.07;;;1.80;;
41966;SDS011;27656;53.068;8.818;2022-07-29T00:22:55;5.43;;;1.97;;
41966;SDS011;27656;53.068;8.818;2022-07-29T00:25:21;6.20;;;1.83;;
41966;SDS011;27656;53.068;8.818;2022-07-29T00:27:47;2.93;;;1.73;;
41966;SDS011;27656;53.068;8.818;2022-07-29T00:30:15;4.33;;;2.10;;
41966;SDS011;27656;53.068;8.818;2022-07-29T00:32:42;11.27;;;1.90;;
41966;SDS011;27656;53.068;8.818;2022-07-29T00:35:08;5.00;;;1.80;;
41966;SDS011;27656;53.068;8.818;2022-07-29T00:37:53;4.17;;;1.80;;
41966;SDS011;27656;53.068;8.818;2022-07-29T00:40:20;7.37;;;1.90;;
41966;SDS011;27656;53.068;8.818;2022-07-29T00:42:50;6.23;;;1.83;;
41966;SDS011;27656;53.068;8.818;2022-07-29T00:45:17;7.03;;;2.17;;
41966;SDS011;27656;53.068;8.818;2022-07-29T00:47:44;6.90;;;1.80;;
41966;SDS011;27656;53.068;8.818;2022-07-29T00:50:12;2.50;;;1.57;;
41966;SDS011;27656;53.068;8.818;2022-07-29T00:52:40;3.03;;;1.67;;
41966;SDS011;27656;53.068;8.818;2022-07-29T00:55:09;3.60;;;1.80;;
41966;SDS011;27656;53.068;8.818;2022-07-29T00:57:37;5.00;;;1.80;;
41966;SDS011;27656;53.068;8.818;2022-07-29T01:00:04;8.87;;;2.20;;
41966;SDS011;27656;53.068;8.818;2022-07-29T01:02:32;4.23;;;2.00;;
41966;SDS011;27656;53.068;8.818;2022-07-29T01:04:58;11.60;;;2.70;;
41966;SDS011;27656;53.068;8.818;2022-07-29T01:07:25;7.30;;;2.37;;
41966;SDS011;27656;53.068;8.818;2022-07-29T01:09:52;2.43;;;2.03;;
41966;SDS011;27656;53.068;8.818;2022-07-29T01:12:21;4.97;;;1.90;;
41966;SDS011;27656;53.068;8.818;2022-07-29T01:14:50;6.60;;;1.80;;
41966;SDS011;27656;53.068;8.818;2022-07-29T01:27:41;4.90;;;1.87;;
41966;SDS011;27656;53.068;8.818;2022-07-29T01:30:13;3.00;;;1.90;;
41966;SDS011;27656;53.068;8.818;2022-07-29T01:32:40;3.33;;;1.70;;
41966;SDS011;27656;53.068;8.818;2022-07-29T01:35:10;4.67;;;1.80;;
41966;SDS011;27656;53.068;8.818;2022-07-29T01:37:50;6.63;;;1.90;;
41966;SDS011;27656;53.068;8.818;2022-07-29T01:40:25;4.27;;;1.90;;
41966;SDS011;27656;53.068;8.818;2022-07-29T01:43:41;4.77;;;2.07;;
41966;SDS011;27656;53.068;8.818;2022-07-29T01:46:01;6.47;;;2.20;;
41966;SDS011;27656;53.068;8.818;2022-07-29T01:48:34;5.80;;;2.00;;
41966;SDS011;27656;53.068;8.818;2022-07-29T01:51:06;5.53;;;1.70;;
41966;SDS011;27656;53.068;8.818;2022-07-29T01:53:35;4.77;;;1.70;;
41966;SDS011;27656;53.068;8.818;2022-07-29T01:56:10;3.17;;;1.60;;
41966;SDS011;27656;53.068;8.818;2022-07-29T01:58:38;5.57;;;1.80;;
41966;SDS011;27656;53.068;8.818;2022-07-29T02:01:06;5.47;;;2.00;;
41966;SDS011;27656;53.068;8.818;2022-07-29T02:03:34;5.60;;;1.57;;
41966;SDS011;27656;53.068;8.818;2022-07-29T02:06:02;4.10;;;1.93;;
41966;SDS011;27656;53.068;8.818;2022-07-29T02:08:30;5.47;;;1.93;;
41966;SDS011;27656;53.068;8.818;2022-07-29T02:10:58;5.97;;;2.27;;
41966;SDS011;27656;53.068;8.818;2022-07-29T02:13:27;4.93;;;2.10;;
41966;SDS011;27656;53.068;8.818;2022-07-29T02:15:54;6.33;;;1.97;;
41966;SDS011;27656;53.068;8.818;2022-07-29T02:18:22;5.93;;;1.77;;
41966;SDS011;27656;53.068;8.818;2022-07-29T02:20:51;9.43;;;2.00;;
41966;SDS011;27656;53.068;8.818;2022-07-29T02:23:20;4.00;;;1.87;;
41966;SDS011;27656;53.068;8.818;2022-07-29T02:25:56;5.57;;;1.90;;
41966;SDS011;27656;53.068;8.818;2022-07-29T02:28:24;5.83;;;1.80;;
41966;SDS011;27656;53.068;8.818;2022-07-29T02:30:53;5.93;;;1.90;;
41966;SDS011;27656;53.068;8.818;2022-07-29T02:33:26;4.83;;;1.80;;
41966;SDS011;27656;53.068;8.818;2022-07-29T02:35:53;5.00;;;2.17;;
41966;SDS011;27656;53.068;8.818;2022-07-29T02:38:21;4.53;;;2.00;;
41966;SDS011;27656;53.068;8.818;2022-07-29T02:41:10;3.90;;;2.20;;
41966;SDS011;27656;53.068;8.818;2022-07-29T02:43:38;5.90;;;2.07;;
41966;SDS011;27656;53.068;8.818;2022-07-29T02:46:07;4.07;;;1.70;;
41966;SDS011;27656;53.068;8.818;2022-07-29T02:48:59;8.80;;;1.80;;
41966;SDS011;27656;53.068;8.818;2022-07-29T02:51:33;4.83;;;1.83;;
41966;SDS011;27656;53.068;8.818;2022-07-29T02:57:06;7.10;;;2.60;;
41966;SDS011;27656;53.068;8.818;2022-07-29T02:59:37;4.90;;;2.13;;
41966;SDS011;27656;53.068;8.818;2022-07-29T03:02:06;8.77;;;2.07;;
41966;SDS011;27656;53.068;8.818;2022-07-29T03:04:34;4.53;;;1.73;;
41966;SDS011;27656;53.068;8.818;2022-07-29T03:07:02;6.07;;;2.13;;
41966;SDS011;27656;53.068;8.818;2022-07-29T03:09:29;7.07;;;1.80;;
41966;SDS011;27656;53.068;8.818;2022-07-29T03:11:56;5.57;;;2.20;;
41966;SDS011;27656;53.068;8.818;2022-07-29T03:14:23;4.87;;;1.70;;
41966;SDS011;27656;53.068;8.818;2022-07-29T03:16:50;10.03;;;2.27;;
41966;SDS011;27656;53.068;8.818;2022-07-29T03:19:17;3.33;;;2.20;;
41966;SDS011;27656;53.068;8.818;2022-07-29T03:21:45;4.40;;;2.00;;
41966;SDS011;27656;53.068;8.818;2022-07-29T03:24:23;4.50;;;1.83;;
41966;SDS011;27656;53.068;8.818;2022-07-29T03:26:51;5.77;;;1.90;;
41966;SDS011;27656;53.068;8.818;2022-07-29T03:29:17;8.33;;;1.80;;
41966;SDS011;27656;53.068;8.818;2022-07-29T03:31:45;5.20;;;2.20;;
41966;SDS011;27656;53.068;8.818;2022-07-29T03:34:13;3.37;;;1.50;;
41966;SDS011;27656;53.068;8.818;2022-07-29T03:36:40;4.20;;;1.70;;
41966;SDS011;27656;53.068;8.818;2022-07-29T03:39:07;5.10;;;1.90;;
41966;SDS011;27656;53.068;8.818;2022-07-29T03:41:35;6.87;;;2.03;;
41966;SDS011;27656;53.068;8.818;2022-07-29T03:44:03;6.03;;;2.20;;
41966;SDS011;27656;53.068;8.818;2022-07-29T03:46:30;6.63;;;1.80;;
41966;SDS011;27656;53.068;8.818;2022-07-29T03:48:59;2.87;;;1.73;;
41966;SDS011;27656;53.068;8.818;2022-07-29T03:51:27;4.17;;;1.90;;
41966;SDS011;27656;53.068;8.818;2022-07-29T03:53:59;4.37;;;1.73;;
41966;SDS011;27656;53.068;8.818;2022-07-29T03:56:35;5.97;;;1.90;;
41966;SDS011;27656;53.068;8.818;2022-07-29T03:59:04;3.70;;;1.83;;
41966;SDS011;27656;53.068;8.818;2022-07-29T04:01:32;5.73;;;2.00;;
41966;SDS011;27656;53.068;8.818;2022-07-29T04:04:01;7.10;;;2.20;;
41966;SDS011;27656;53.068;8.818;2022-07-29T04:06:27;2.80;;;1.90;;
41966;SDS011;27656;53.068;8.818;2022-07-29T04:08:54;7.57;;;2.33;;
41966;SDS011;27656;53.068;8.818;2022-07-29T04:11:20;8.70;;;2.13;;
41966;SDS011;27656;53.068;8.818;2022-07-29T04:13:47;6.33;;;2.30;;
41966;SDS011;27656;53.068;8.818;2022-07-29T04:16:13;5.53;;;2.10;;
41966;SDS011;27656;53.068;8.818;2022-07-29T04:18:40;4.00;;;2.27;;
41966;SDS011;27656;53.068;8.818;2022-07-29T04:21:06;5.77;;;2.10;;
41966;SDS011;27656;53.068;8.818;2022-07-29T04:23:33;9.33;;;2.33;;
41966;SDS011;27656;53.068;8.818;2022-07-29T04:26:00;6.17;;;2.33;;
41966;SDS011;27656;53.068;8.818;2022-07-29T04:28:27;4.30;;;2.10;;
41966;SDS011;27656;53.068;8.818;2022-07-29T04:30:53;4.17;;;2.20;;
41966;SDS011;27656;53.068;8.818;2022-07-29T04:33:20;3.47;;;2.00;;
41966;SDS011;27656;53.068;8.818;2022-07-29T04:35:50;4.57;;;2.50;;
41966;SDS011;27656;53.068;8.818;2022-07-29T04:38:20;7.20;;;2.03;;
41966;SDS011;27656;53.068;8.818;2022-07-29T04:40:48;9.23;;;2.57;;
41966;SDS011;27656;53.068;8.818;2022-07-29T04:43:15;5.60;;;2.47;;
41966;SDS011;27656;53.068;8.818;2022-07-29T04:45:47;6.00;;;2.20;;
41966;SDS011;27656;53.068;8.818;2022-07-29T04:48:14;7.43;;;2.97;;
41966;SDS011;27656;53.068;8.818;2022-07-29T04:50:40;10.87;;;2.77;;
41966;SDS011;27656;53.068;8.818;2022-07-29T04:53:07;10.30;;;2.40;;
41966;SDS011;27656;53.068;8.818;2022-07-29T04:55:33;6.87;;;2.77;;
41966;SDS011;27656;53.068;8.818;2022-07-29T04:58:04;9.00;;;2.27;;
41966;SDS011;27656;53.068;8.818;2022-07-29T05:00:30;11.00;;;2.67;;
41966;SDS011;27656;53.068;8.818;2022-07-29T05:02:58;4.20;;;2.33;;
41966;SDS011;27656;53.068;8.818;2022-07-29T05:05:25;9.03;;;2.60;;
41966;SDS011;27656;53.068;8.818;2022-07-29T05:07:52;8.77;;;2.60;;
41966;SDS011;27656;53.068;8.818;2022-07-29T05:10:18;9.90;;;2.50;;
41966;SDS011;27656;53.068;8.818;2022-07-29T05:12:44;12.93;;;2.70;;
41966;SDS011;27656;53.068;8.818;2022-07-29T05:15:11;9.60;;;2.80;;
41966;SDS011;27656;53.068;8.818;2022-07-29T05:17:41;10.93;;;2.90;;
41966;SDS011;27656;53.068;8.818;2022-07-29T05:20:07;9.87;;;3.10;;
41966;SDS011;27656;53.068;8.818;2022-07-29T05:22:34;11.03;;;3.07;;
41966;SDS011;27656;53.068;8.818;2022-07-29T05:25:00;9.73;;;3.20;;
41966;SDS011;27656;53.068;8.818;2022-07-29T05:27:34;7.33;;;3.00;;
41966;SDS011;27656;53.068;8.818;2022-07-29T05:30:01;5.03;;;2.10;;
41966;SDS011;27656;53.068;8.818;2022-07-29T05:32:28;15.37;;;2.73;;
41966;SDS011;27656;53.068;8.818;2022-07-29T05:34:54;5.40;;;2.60;;
41966;SDS011;27656;53.068;8.818;2022-07-29T05:37:21;12.33;;;2.60;;
41966;SDS011;27656;53.068;8.818;2022-07-29T05:39:47;6.93;;;2.60;;
41966;SDS011;27656;53.068;8.818;2022-07-29T05:42:22;7.47;;;2.80;;
41966;SDS011;27656;53.068;8.818;2022-07-29T05:44:49;11.93;;;2.93;;
41966;SDS011;27656;53.068;8.818;2022-07-29T05:47:17;8.47;;;2.80;;
41966;SDS011;27656;53.068;8.818;2022-07-29T05:49:43;5.83;;;2.30;;
41966;SDS011;27656;53.068;8.818;2022-07-29T05:52:10;9.93;;;2.60;;
41966;SDS011;27656;53.068;8.818;2022-07-29T05:54:36;4.60;;;2.70;;
41966;SDS011;27656;53.068;8.818;2022-07-29T05:57:03;10.37;;;2.70;;
41966;SDS011;27656;53.068;8.818;2022-07-29T05:59:29;6.90;;;2.67;;
41966;SDS011;27656;53.068;8.818;2022-07-29T06:01:56;6.30;;;3.03;;
41966;SDS011;27656;53.068;8.818;2022-07-29T06:04:23;6.83;;;3.00;;
41966;SDS011;27656;53.068;8.818;2022-07-29T06:06:50;4.13;;;2.50;;
41966;SDS011;27656;53.068;8.818;2022-07-29T06:09:16;10.73;;;2.80;;
41966;SDS011;27656;53.068;8.818;2022-07-29T06:11:43;6.20;;;2.30;;
41966;SDS011;27656;53.068;8.818;2022-07-29T06:14:10;9.40;;;2.80;;
41966;SDS011;27656;53.068;8.818;2022-07-29T06:16:36;4.67;;;2.20;;
41966;SDS011;27656;53.068;8.818;2022-07-29T06:19:03;7.17;;;3.03;;
41966;SDS011;27656;53.068;8.818;2022-07-29T06:21:30;5.43;;;3.10;;
41966;SDS011;27656;53.068;8.818;2022-07-29T06:23:56;6.50;;;3.00;;
41966;SDS011;27656;53.068;8.818;2022-07-29T06:26:23;7.10;;;2.80;;
41966;SDS011;27656;53.068;8.818;2022-07-29T06:28:56;3.67;;;2.80;;
41966;SDS011;27656;53.068;8.818;2022-07-29T06:31:22;6.97;;;2.50;;
41966;SDS011;27656;53.068;8.818;2022-07-29T06:33:49;8.40;;;2.80;;
41966;SDS011;27656;53.068;8.818;2022-07-29T06:36:15;6.30;;;2.70;;
41966;SDS011;27656;53.068;8.818;2022-07-29T06:38:42;9.27;;;3.00;;
41966;SDS011;27656;53.068;8.818;2022-07-29T06:41:16;5.50;;;2.77;;
41966;SDS011;27656;53.068;8.818;2022-07-29T06:43:44;8.00;;;2.60;;
41966;SDS011;27656;53.068;8.818;2022-07-29T06:46:19;10.07;;;3.40;;
41966;SDS011;27656;53.068;8.818;2022-07-29T06:48:47;8.73;;;2.40;;
41966;SDS011;27656;53.068;8.818;2022-07-29T06:51:14;6.90;;;2.80;;
41966;SDS011;27656;53.068;8.818;2022-07-29T06:53:41;7.40;;;2.80;;
41966;SDS011;27656;53.068;8.818;2022-07-29T06:56:27;6.20;;;2.83;;
41966;SDS011;27656;53.068;8.818;2022-07-29T06:58:54;9.30;;;2.97;;
41966;SDS011;27656;53.068;8.818;2022-07-29T07:01:20;8.53;;;2.80;;
41966;SDS011;27656;53.068;8.818;2022-07-29T07:03:47;4.90;;;2.47;;
41966;SDS011;27656;53.068;8.818;2022-07-29T07:06:14;6.10;;;2.70;;
41966;SDS011;27656;53.068;8.818;2022-07-29T07:08:40;8.73;;;2.70;;
41966;SDS011;27656;53.068;8.818;2022-07-29T07:11:07;12.13;;;3.07;;
41966;SDS011;27656;53.068;8.818;2022-07-29T07:13:34;6.30;;;2.83;;
41966;SDS011;27656;53.068;8.818;2022-07-29T07:16:02;7.80;;;2.70;;
41966;SDS011;27656;53.068;8.818;2022-07-29T07:18:29;10.63;;;3.00;;
41966;SDS011;27656;53.068;8.818;2022-07-29T07:20:55;6.93;;;2.70;;
41966;SDS011;27656;53.068;8.818;2022-07-29T07:23:22;7.87;;;2.70;;
41966;SDS011;27656;53.068;8.818;2022-07-29T07:25:49;6.70;;;2.37;;
41966;SDS011;27656;53.068;8.818;2022-07-29T07:28:15;5.40;;;2.50;;
41966;SDS011;27656;53.068;8.818;2022-07-29T07:30:42;3.80;;;2.33;;
41966;SDS011;27656;53.068;8.818;2022-07-29T07:33:08;7.03;;;2.70;;
41966;SDS011;27656;53.068;8.818;2022-07-29T07:35:35;5.90;;;2.43;;
41966;SDS011;27656;53.068;8.818;2022-07-29T07:38:01;5.80;;;2.27;;
41966;SDS011;27656;53.068;8.818;2022-07-29T07:40:28;6.77;;;2.67;;
41966;SDS011;27656;53.068;8.818;2022-07-29T07:42:55;5.17;;;2.47;;
41966;SDS011;27656;53.068;8.818;2022-07-29T07:45:21;7.83;;;2.50;;
41966;SDS011;27656;53.068;8.818;2022-07-29T07:47:48;6.30;;;2.70;;
41966;SDS011;27656;53.068;8.818;2022-07-29T07:50:14;6.87;;;2.53;;
41966;SDS011;27656;53.068;8.818;2022-07-29T07:52:51;8.33;;;2.70;;
41966;SDS011;27656;53.068;8.818;2022-07-29T07:55:20;8.60;;;2.60;;
41966;SDS011;27656;53.068;8.818;2022-07-29T07:57:47;4.90;;;2.40;;
41966;SDS011;27656;53.068;8.818;2022-07-29T08:00:14;8.13;;;2.80;;
41966;SDS011;27656;53.068;8.818;2022-07-29T08:02:41;7.77;;;2.00;;
41966;SDS011;27656;53.068;8.818;2022-07-29T08:05:09;4.87;;;2.23;;
41966;SDS011;27656;53.068;8.818;2022-07-29T08:07:38;8.90;;;2.50;;
41966;SDS011;27656;53.068;8.818;2022-07-29T08:10:04;6.70;;;2.23;;
41966;SDS011;27656;53.068;8.818;2022-07-29T08:12:31;5.30;;;2.10;;
41966;SDS011;27656;53.068;8.818;2022-07-29T08:14:58;4.53;;;2.50;;
41966;SDS011;27656;53.068;8.818;2022-07-29T08:17:24;6.77;;;2.43;;
41966;SDS011;27656;53.068;8.818;2022-07-29T08:19:51;6.57;;;2.70;;
41966;SDS011;27656;53.068;8.818;2022-07-29T08:22:17;7.30;;;2.60;;
41966;SDS011;27656;53.068;8.818;2022-07-29T08:24:44;7.07;;;2.27;;
41966;SDS011;27656;53.068;8.818;2022-07-29T08:27:19;10.00;;;2.67;;
41966;SDS011;27656;53.068;8.818;2022-07-29T08:30:06;8.53;;;2.90;;
41966;SDS011;27656;53.068;8.818;2022-07-29T08:32:33;6.17;;;2.20;;
41966;SDS011;27656;53.068;8.818;2022-07-29T08:35:19;5.83;;;2.43;;
41966;SDS011;27656;53.068;8.818;2022-07-29T08:37:46;8.50;;;2.97;;
41966;SDS011;27656;53.068;8.818;2022-07-29T08:40:12;7.63;;;2.60;;
41966;SDS011;27656;53.068;8.818;2022-07-29T08:42:40;5.13;;;2.40;;
41966;SDS011;27656;53.068;8.818;2022-07-29T08:45:07;9.57;;;2.20;;
41966;SDS011;27656;53.068;8.818;2022-07-29T08:47:34;5.80;;;2.63;;
41966;SDS011;27656;53.068;8.818;2022-07-29T08:50:06;4.37;;;2.17;;
41966;SDS011;27656;53.068;8.818;2022-07-29T08:52:35;6.53;;;2.60;;
41966;SDS011;27656;53.068;8.818;2022-07-29T08:55:02;6.50;;;2.83;;
41966;SDS011;27656;53.068;8.818;2022-07-29T08:57:34;8.40;;;2.37;;
41966;SDS011;27656;53.068;8.818;2022-07-29T09:00:05;4.83;;;2.10;;
41966;SDS011;27656;53.068;8.818;2022-07-29T09:02:41;5.00;;;2.10;;
41966;SDS011;27656;53.068;8.818;2022-07-29T09:05:11;9.27;;;2.23;;
41966;SDS011;27656;53.068;8.818;2022-07-29T09:07:38;5.93;;;2.70;;
41966;SDS011;27656;53.068;8.818;2022-07-29T09:10:05;4.00;;;2.13;;
41966;SDS011;27656;53.068;8.818;2022-07-29T09:12:32;4.87;;;2.53;;
41966;SDS011;27656;53.068;8.818;2022-07-29T09:15:03;6.47;;;2.30;;
41966;SDS011;27656;53.068;8.818;2022-07-29T09:17:43;8.57;;;2.10;;
41966;SDS011;27656;53.068;8.818;2022-07-29T09:20:12;3.97;;;2.00;;
41966;SDS011;27656;53.068;8.818;2022-07-29T09:22:40;7.13;;;2.40;;
41966;SDS011;27656;53.068;8.818;2022-07-29T09:25:07;7.07;;;2.10;;
41966;SDS011;27656;53.068;8.818;2022-07-29T09:27:34;6.43;;;2.33;;
41966;SDS011;27656;53.068;8.818;2022-07-29T09:30:06;6.90;;;2.70;;
41966;SDS011;27656;53.068;8.818;2022-07-29T09:35:24;4.97;;;2.10;;
41966;SDS011;27656;53.068;8.818;2022-07-29T09:37:51;4.00;;;1.87;;
41966;SDS011;27656;53.068;8.818;2022-07-29T09:40:19;7.57;;;2.40;;
41966;SDS011;27656;53.068;8.818;2022-07-29T09:42:47;10.97;;;2.33;;
41966;SDS011;27656;53.068;8.818;2022-07-29T09:45:28;5.60;;;2.30;;
41966;SDS011;27656;53.068;8.818;2022-07-29T09:47:55;5.80;;;2.30;;
41966;SDS011;27656;53.068;8.818;2022-07-29T09:53:31;5.60;;;1.97;;
41966;SDS011;27656;53.068;8.818;2022-07-29T09:55:58;4.87;;;2.17;;
41966;SDS011;27656;53.068;8.818;2022-07-29T09:58:25;6.23;;;2.20;;
41966;SDS011;27656;53.068;8.818;2022-07-29T10:00:52;5.03;;;1.80;;
41966;SDS011;27656;53.068;8.818;2022-07-29T10:03:19;5.63;;;2.00;;
41966;SDS011;27656;53.068;8.818;2022-07-29T10:06:04;5.63;;;2.23;;
41966;SDS011;27656;53.068;8.818;2022-07-29T10:08:31;7.50;;;2.53;;
41966;SDS011;27656;53.068;8.818;2022-07-29T10:11:11;6.60;;;2.00;;
41966;SDS011;27656;53.068;8.818;2022-07-29T10:13:39;5.33;;;2.00;;
41966;SDS011;27656;53.068;8.818;2022-07-29T10:16:07;4.57;;;1.90;;
41966;SDS011;27656;53.068;8.818;2022-07-29T10:18:34;8.07;;;1.80;;
41966;SDS011;27656;53.068;8.818;2022-07-29T10:21:01;5.53;;;2.00;;
41966;SDS011;27656;53.068;8.818;2022-07-29T10:23:28;4.00;;;1.97;;
41966;SDS011;27656;53.068;8.818;2022-07-29T10:26:12;3.63;;;1.80;;
41966;SDS011;27656;53.068;8.818;2022-07-29T10:28:39;5.93;;;1.87;;
41966;SDS011;27656;53.068;8.818;2022-07-29T10:31:06;4.97;;;2.10;;
41966;SDS011;27656;53.068;8.818;2022-07-29T10:33:47;7.80;;;2.10;;
41966;SDS011;27656;53.068;8.818;2022-07-29T10:36:41;5.53;;;2.10;;
41966;SDS011;27656;53.068;8.818;2022-07-29T10:42:21;6.97;;;2.00;;
41966;SDS011;27656;53.068;8.818;2022-07-29T10:44:59;7.83;;;2.00;;
41966;SDS011;27656;53.068;8.818;2022-07-29T10:47:27;7.30;;;1.73;;
41966;SDS011;27656;53.068;8.818;2022-07-29T10:50:00;4.00;;;1.83;;
41966;SDS011;27656;53.068;8.818;2022-07-29T10:58:21;4.63;;;2.10;;
41966;SDS011;27656;53.068;8.818;2022-07-29T11:00:50;4.60;;;1.80;;
41966;SDS011;27656;53.068;8.818;2022-07-29T11:06:18;4.75;;;2.10;;
41966;SDS011;27656;53.068;8.818;2022-07-29T11:12:00;4.22;;;1.80;;
41966;SDS011;27656;53.068;8.818;2022-07-29T11:17:23;7.18;;;1.70;;
41966;SDS011;27656;53.068;8.818;2022-07-29T11:19:49;5.18;;;1.73;;
41966;SDS011;27656;53.068;8.818;2022-07-29T11:22:33;9.35;;;1.95;;
41966;SDS011;27656;53.068;8.818;2022-07-29T11:25:13;3.92;;;1.73;;
41966;SDS011;27656;53.068;8.818;2022-07-29T11:27:42;5.82;;;1.60;;
41966;SDS011;27656;53.068;8.818;2022-07-29T11:30:11;4.15;;;1.58;;
41966;SDS011;27656;53.068;8.818;2022-07-29T11:32:41;5.22;;;1.88;;
41966;SDS011;27656;53.068;8.818;2022-07-29T11:35:20;4.20;;;1.80;;
41966;SDS011;27656;53.068;8.818;2022-07-29T11:43:57;6.63;;;1.67;;
41966;SDS011;27656;53.068;8.818;2022-07-29T11:47:10;3.72;;;1.40;;
41966;SDS011;27656;53.068;8.818;2022-07-29T11:49:22;8.35;;;1.75;;
41966;SDS011;27656;53.068;8.818;2022-07-29T11:51:58;7.38;;;1.50;;
41966;SDS011;27656;53.068;8.818;2022-07-29T11:54:32;4.40;;;1.65;;
41966;SDS011;27656;53.068;8.818;2022-07-29T11:57:19;5.40;;;1.67;;
41966;SDS011;27656;53.068;8.818;2022-07-29T11:59:47;7.28;;;1.90;;
41966;SDS011;27656;53.068;8.818;2022-07-29T12:02:14;5.03;;;1.50;;
41966;SDS011;27656;53.068;8.818;2022-07-29T12:05:01;4.60;;;1.60;;
41966;SDS011;27656;53.068;8.818;2022-07-29T12:07:36;2.92;;;1.45;;
41966;SDS011;27656;53.068;8.818;2022-07-29T12:10:04;3.33;;;1.40;;
41966;SDS011;27656;53.068;8.818;2022-07-29T12:12:31;4.45;;;1.58;;
41966;SDS011;27656;53.068;8.818;2022-07-29T12:15:09;6.47;;;1.90;;
41966;SDS011;27656;53.068;8.818;2022-07-29T12:17:41;4.25;;;1.58;;
41966;SDS011;27656;53.068;8.818;2022-07-29T12:20:08;3.80;;;1.60;;
41966;SDS011;27656;53.068;8.818;2022-07-29T12:22:38;6.78;;;1.63;;
41966;SDS011;27656;53.068;8.818;2022-07-29T12:25:09;6.40;;;1.45;;
41966;SDS011;27656;53.068;8.818;2022-07-29T12:27:58;3.92;;;1.70;;
41966;SDS011;27656;53.068;8.818;2022-07-29T12:30:34;6.00;;;1.67;;
41966;SDS011;27656;53.068;8.818;2022-07-29T12:33:09;5.18;;;1.60;;
41966;SDS011;27656;53.068;8.818;2022-07-29T12:35:39;5.10;;;1.35;;
41966;SDS011;27656;53.068;8.818;2022-07-29T12:38:09;6.78;;;2.03;;
41966;SDS011;27656;53.068;8.818;2022-07-29T12:40:38;3.47;;;1.65;;
41966;SDS011;27656;53.068;8.818;2022-07-29T12:45:43;4.75;;;1.65;;
41966;SDS011;27656;53.068;8.818;2022-07-29T12:48:11;7.00;;;1.83;;
41966;SDS011;27656;53.068;8.818;2022-07-29T12:50:54;3.80;;;1.45;;
41966;SDS011;27656;53.068;8.818;2022-07-29T12:53:21;4.30;;;1.60;;
41966;SDS011;27656;53.068;8.818;2022-07-29T12:55:49;6.95;;;1.73;;
41966;SDS011;27656;53.068;8.818;2022-07-29T12:58:30;9.45;;;1.73;;
41966;SDS011;27656;53.068;8.818;2022-07-29T13:01:08;9.20;;;1.80;;
41966;SDS011;27656;53.068;8.818;2022-07-29T13:09:10;8.90;;;1.83;;
41966;SDS011;27656;53.068;8.818;2022-07-29T13:11:41;5.07;;;1.67;;
41966;SDS011;27656;53.068;8.818;2022-07-29T13:14:29;7.68;;;1.85;;
41966;SDS011;27656;53.068;8.818;2022-07-29T13:19:35;7.30;;;1.60;;
41966;SDS011;27656;53.068;8.818;2022-07-29T13:22:21;7.45;;;1.80;;
41966;SDS011;27656;53.068;8.818;2022-07-29T13:24:49;8.02;;;1.65;;
41966;SDS011;27656;53.068;8.818;2022-07-29T13:27:17;5.80;;;1.80;;
41966;SDS011;27656;53.068;8.818;2022-07-29T13:29:44;5.50;;;1.73;;
41966;SDS011;27656;53.068;8.818;2022-07-29T13:32:10;8.57;;;1.75;;
41966;SDS011;27656;53.068;8.818;2022-07-29T13:34:38;7.13;;;1.35;;
41966;SDS011;27656;53.068;8.818;2022-07-29T13:37:05;6.18;;;1.88;;
41966;SDS011;27656;53.068;8.818;2022-07-29T13:39:31;2.10;;;1.30;;
41966;SDS011;27656;53.068;8.818;2022-07-29T13:41:58;7.03;;;1.85;;
41966;SDS011;27656;53.068;8.818;2022-07-29T13:44:25;5.40;;;1.70;;
41966;SDS011;27656;53.068;8.818;2022-07-29T13:46:52;11.43;;;1.52;;
41966;SDS011;27656;53.068;8.818;2022-07-29T13:49:18;11.52;;;2.15;;
41966;SDS011;27656;53.068;8.818;2022-07-29T13:51:45;4.57;;;1.70;;
41966;SDS011;27656;53.068;8.818;2022-07-29T13:54:11;5.80;;;1.80;;
41966;SDS011;27656;53.068;8.818;2022-07-29T13:56:38;6.35;;;1.98;;
41966;SDS011;27656;53.068;8.818;2022-07-29T13:59:04;8.52;;;2.15;;
41966;SDS011;27656;53.068;8.818;2022-07-29T14:01:31;3.85;;;1.65;;
41966;SDS011;27656;53.068;8.818;2022-07-29T14:03:57;6.00;;;1.65;;
41966;SDS011;27656;53.068;8.818;2022-07-29T14:06:24;10.48;;;2.10;;
41966;SDS011;27656;53.068;8.818;2022-07-29T14:08:50;8.65;;;1.80;;
41966;SDS011;27656;53.068;8.818;2022-07-29T14:11:17;4.57;;;2.10;;
41966;SDS011;27656;53.068;8.818;2022-07-29T14:13:44;4.40;;;1.70;;
41966;SDS011;27656;53.068;8.818;2022-07-29T14:16:10;6.85;;;2.05;;
41966;SDS011;27656;53.068;8.818;2022-07-29T14:18:37;3.13;;;1.70;;
41966;SDS011;27656;53.068;8.818;2022-07-29T14:21:03;7.07;;;2.03;;
41966;SDS011;27656;53.068;8.818;2022-07-29T14:23:30;5.80;;;1.92;;
41966;SDS011;27656;53.068;8.818;2022-07-29T14:25:56;7.25;;;2.03;;
41966;SDS011;27656;53.068;8.818;2022-07-29T14:28:23;5.47;;;2.78;;
41966;SDS011;27656;53.068;8.818;2022-07-29T14:30:49;7.10;;;2.40;;
41966;SDS011;27656;53.068;8.818;2022-07-29T14:33:16;9.32;;;1.58;;
41966;SDS011;27656;53.068;8.818;2022-07-29T14:35:42;8.10;;;1.95;;
41966;SDS011;27656;53.068;8.818;2022-07-29T14:38:10;8.68;;;2.10;;
41966;SDS011;27656;53.068;8.818;2022-07-29T14:40:37;5.68;;;1.58;;
41966;SDS011;27656;53.068;8.818;2022-07-29T14:43:04;3.05;;;1.70;;
41966;SDS011;27656;53.068;8.818;2022-07-29T14:45:30;6.25;;;2.60;;
41966;SDS011;27656;53.068;8.818;2022-07-29T14:47:57;6.90;;;2.97;;
41966;SDS011;27656;53.068;8.818;2022-07-29T14:50:24;6.90;;;2.22;;
41966;SDS011;27656;53.068;8.818;2022-07-29T14:52:57;6.22;;;1.95;;
41966;SDS011;27656;53.068;8.818;2022-07-29T14:55:24;9.45;;;1.83;;
41966;SDS011;27656;53.068;8.818;2022-07-29T14:57:50;5.07;;;2.38;;
41966;SDS011;27656;53.068;8.818;2022-07-29T15:00:23;3.95;;;1.98;;
41966;SDS011;27656;53.068;8.818;2022-07-29T15:02:50;5.68;;;1.95;;
41966;SDS011;27656;53.068;8.818;2022-07-29T15:05:27;10.68;;;1.95;;
41966;SDS011;27656;53.068;8.818;2022-07-29T15:07:53;9.73;;;2.20;;
41966;SDS011;27656;53.068;8.818;2022-07-29T15:10:20;3.75;;;1.80;;
41966;SDS011;27656;53.068;8.818;2022-07-29T15:12:49;5.30;;;1.93;;
41966;SDS011;27656;53.068;8.818;2022-07-29T15:15:16;5.32;;;2.28;;
41966;SDS011;27656;53.068;8.818;2022-07-29T15:17:42;5.27;;;1.97;;
41966;SDS011;27656;53.068;8.818;2022-07-29T15:20:09;5.22;;;2.08;;
41966;SDS011;27656;53.068;8.818;2022-07-29T15:22:37;4.45;;;1.70;;
41966;SDS011;27656;53.068;8.818;2022-07-29T15:25:04;6.80;;;1.98;;
41966;SDS011;27656;53.068;8.818;2022-07-29T15:27:31;6.10;;;1.60;;
41966;SDS011;27656;53.068;8.818;2022-07-29T15:29:58;9.20;;;1.70;;
41966;SDS011;27656;53.068;8.818;2022-07-29T15:32:24;8.53;;;2.17;;
41966;SDS011;27656;53.068;8.818;2022-07-29T15:34:51;7.17;;;2.10;;
41966;SDS011;27656;53.068;8.818;2022-07-29T15:37:17;6.18;;;2.10;;
41966;SDS011;27656;53.068;8.818;2022-07-29T15:39:44;7.10;;;2.20;;
41966;SDS011;27656;53.068;8.818;2022-07-29T15:42:10;10.07;;;2.17;;
41966;SDS011;27656;53.068;8.818;2022-07-29T15:44:37;8.47;;;1.93;;
41966;SDS011;27656;53.068;8.818;2022-07-29T15:47:03;9.03;;;2.27;;
41966;SDS011;27656;53.068;8.818;2022-07-29T15:49:32;7.60;;;1.80;;
41966;SDS011;27656;53.068;8.818;2022-07-29T15:52:15;4.30;;;1.83;;
41966;SDS011;27656;53.068;8.818;2022-07-29T15:54:43;5.07;;;1.77;;